Hauptseite
METAR-TAF:

METAR-TAF

Flughäfen :

Fliegerhorst Nörvenich

Nörvenich, Deutschland

Breite: 50-50N, Länge: 006-40E, Höhe: 118 m

Beobachtung

Neuester Wetterbericht von vor 24 Minuten, um 09:20 UTC
Wind 3 kt aus unterschiedlichen Richtungen
Temperatur 16°C
Luftfeuchtigkeit 68%
Luftdruck 1024 hPa
Sichtweite 10 km oder mehr
Durchbrochene Bewölkung in der Höhe von 25000 ft

METAR: ETNN 280920Z VRB03KT 9999 BKN250 16/10 Q1024 BLU+BLU+

Zeit: 11:44 (09:44 UTC)

Prognose

Neuester Wetterbericht von vor 2 Stunden und 20 Minuten, um 07:24 UTC
Gültige Prognose vom 28 um 08 UTC bis 28 um 17 UTC
Wind 5 kt aus Süd/Südost
Sichtweite 10 km oder mehr
Leicht bewölkt in der Höhe von 3000 ft
Aufgelockert bewölkt in der Höhe von 27000 ft

TAF: ETNN 280724Z 2808/2817 16005KT 9999 NSW FEW030 SCT270 BY ETGL

Wetterbeobachtungen und Prognosen von mehr als 4000 Flughäfen (METAR und TAF Bericht).

Die verfügbaren Stationen werden durch gelbe und rote Markierungen auf der Karte dargestellt.

Führen Sie die Maus auf sie, um den Namen der Station zu sehen.

Darauf klicken, um die Beobachtung von Wetterbeobachtungen und Prognosen zu sehen.

Um die Karte zu ändern : klicken Sie auf den grünen Tasten mit einem schwarzen Kreuz Zum Vergrößern, auf den grünen Button mit einem Gedankenstrich zu verkleinern, oder auf die grünen Pfeile für benachbarte Karten.


METAR-TAF: